Martinsburg, WV (25402)

11:16 PM EST on January 24, 2015 (GMT -0500)
Wildflower Creek | Change Station
CLOSE
Current Station
Personal Weather Station
Location: Martinsburg, WV
Elevation: 472 ft
Nearby Weather Stations

Elev 472 ft 39.46 °N, 77.94 °W | Updated 1 minute ago

Overcast
Overcast
36.3 °F
Feels Like 33 °F
N
4.0
Wind Variable Wind from WNW
Gusts 6.3 mph

Today
High -- | Low -- °F
--% Chance of Precip.
Yesterday
High -- | Low -- °F
Precip. -- in
7:25 AM 5:22 PM
Waxing Crescent, 28% visible
Pressure 29.66 in
Visibility 10.0 miles
Clouds Scattered Clouds 3100 ft
Overcast 6000 ft
Windchill 33 °F
Dew Point 8 °F
Humidity 31%
Rainfall 0.55 in
Snow Depth Not available.
UV 0 out of 12
Pollen .10 out of 12
Air Quality Not available.
Flu Activity Not available.
METAR KMRB 250353Z AUTO 29020G28KT 10SM SCT031 OVC060 03/M04 A2965 RMK AO2 PK WND 28028/0345 SLP043 T00331039 TSNO

More Conditions Fewer Conditions

Pressure 29.66 in
Visibility 10.0 miles
Clouds Scattered Clouds 3100 ft
Overcast 6000 ft
Windchill 33 °F
Dew Point 8 °F
Humidity 31%
Rainfall 0.55 in
Snow Depth Not available.
UV 0 out of 12
Pollen .10 out of 12
Air Quality Not available.
Flu Activity Not available.
METAR KMRB 250353Z AUTO 29020G28KT 10SM SCT031 OVC060 03/M04 A2965 RMK AO2 PK WND 28028/0345 SLP043 T00331039 TSNO

More Conditions Fewer Conditions

10-Day Weather Forecast

Almanac

Astronomy

Jan. 24, 2015 Rise Set
Actual Time
Civil Twilight
Nautical Twilight
Astronomical Twilight
Moon
Length of Visible Light
Length of Day
Tomorrow will be .
, % of the Moon is Illuminated

Today's Extremes

State Highs State Lows

Community

WunderPhotos

Upload Photos

1,789,838 photos uploaded!

WunderBlogs® & News

Nearby

Air Quality

  Air Quality AQ Index Pollutant
Not available.

Snow Depth

Station Depth Elevation

Earthquake Activity

City Distance Mag. Time & Date
Minimum magnitude displayed is 2.5.

Coastal Water Temperatures

Place Temperature

Nearby Weather Stations